sensor_id;sensor_type;location;lat;lon;timestamp;temperature;humidity
11214;DHT22;5664;48.606;13.456;2023-03-21T00:00:33;18.60;69.10
11214;DHT22;5664;48.606;13.456;2023-03-21T00:02:59;18.60;69.10
11214;DHT22;5664;48.606;13.456;2023-03-21T00:05:25;18.60;69.10
11214;DHT22;5664;48.606;13.456;2023-03-21T00:07:51;18.60;69.00
11214;DHT22;5664;48.606;13.456;2023-03-21T00:10:16;18.60;69.10
11214;DHT22;5664;48.606;13.456;2023-03-21T00:12:42;18.60;69.00
11214;DHT22;5664;48.606;13.456;2023-03-21T00:15:08;18.60;69.00
11214;DHT22;5664;48.606;13.456;2023-03-21T00:17:34;18.60;69.00
11214;DHT22;5664;48.606;13.456;2023-03-21T00:20:02;18.60;69.00
11214;DHT22;5664;48.606;13.456;2023-03-21T00:22:29;18.60;69.00
11214;DHT22;5664;48.606;13.456;2023-03-21T00:24:55;18.60;69.00
11214;DHT22;5664;48.606;13.456;2023-03-21T00:27:21;18.60;69.00
11214;DHT22;5664;48.606;13.456;2023-03-21T00:29:47;18.60;69.10
11214;DHT22;5664;48.606;13.456;2023-03-21T00:32:14;18.60;69.10
11214;DHT22;5664;48.606;13.456;2023-03-21T00:34:40;18.60;69.00
11214;DHT22;5664;48.606;13.456;2023-03-21T00:37:06;18.60;69.00
11214;DHT22;5664;48.606;13.456;2023-03-21T00:39:33;18.60;69.00
11214;DHT22;5664;48.606;13.456;2023-03-21T00:41:59;18.60;69.00
11214;DHT22;5664;48.606;13.456;2023-03-21T00:44:24;18.60;69.00
11214;DHT22;5664;48.606;13.456;2023-03-21T00:46:50;18.50;68.90
11214;DHT22;5664;48.606;13.456;2023-03-21T00:49:16;18.60;69.00
11214;DHT22;5664;48.606;13.456;2023-03-21T00:51:41;18.60;68.90
11214;DHT22;5664;48.606;13.456;2023-03-21T00:54:08;18.60;69.00
11214;DHT22;5664;48.606;13.456;2023-03-21T00:56:33;18.50;68.90
11214;DHT22;5664;48.606;13.456;2023-03-21T00:58:59;18.50;69.70
11214;DHT22;5664;48.606;13.456;2023-03-21T01:01:24;18.50;68.90
11214;DHT22;5664;48.606;13.456;2023-03-21T01:03:59;18.50;68.90
11214;DHT22;5664;48.606;13.456;2023-03-21T01:06:28;18.50;68.90
11214;DHT22;5664;48.606;13.456;2023-03-21T01:08:54;18.50;68.90
11214;DHT22;5664;48.606;13.456;2023-03-21T01:11:24;18.50;68.90
11214;DHT22;5664;48.606;13.456;2023-03-21T01:13:50;18.50;68.90
11214;DHT22;5664;48.606;13.456;2023-03-21T01:16:16;18.50;68.90
11214;DHT22;5664;48.606;13.456;2023-03-21T01:18:42;18.50;68.80
11214;DHT22;5664;48.606;13.456;2023-03-21T01:21:09;18.50;68.80
11214;DHT22;5664;48.606;13.456;2023-03-21T01:23:35;18.50;68.80
11214;DHT22;5664;48.606;13.456;2023-03-21T01:26:00;18.50;68.80
11214;DHT22;5664;48.606;13.456;2023-03-21T01:28:26;18.50;68.80
11214;DHT22;5664;48.606;13.456;2023-03-21T01:30:52;18.50;68.80
11214;DHT22;5664;48.606;13.456;2023-03-21T01:33:18;18.50;68.80
11214;DHT22;5664;48.606;13.456;2023-03-21T01:35:44;18.50;68.80
11214;DHT22;5664;48.606;13.456;2023-03-21T01:38:10;18.50;68.80
11214;DHT22;5664;48.606;13.456;2023-03-21T01:40:36;18.50;68.80
11214;DHT22;5664;48.606;13.456;2023-03-21T01:43:01;18.50;68.80
11214;DHT22;5664;48.606;13.456;2023-03-21T01:48:12;18.50;69.60
11214;DHT22;5664;48.606;13.456;2023-03-21T01:50:37;18.50;68.80
11214;DHT22;5664;48.606;13.456;2023-03-21T01:53:04;18.50;68.80
11214;DHT22;5664;48.606;13.456;2023-03-21T01:55:31;18.50;68.80
11214;DHT22;5664;48.606;13.456;2023-03-21T01:57:56;18.50;68.70
11214;DHT22;5664;48.606;13.456;2023-03-21T02:00:23;18.50;68.80
11214;DHT22;5664;48.606;13.456;2023-03-21T02:02:49;18.50;68.70
11214;DHT22;5664;48.606;13.456;2023-03-21T02:05:31;18.50;68.70
11214;DHT22;5664;48.606;13.456;2023-03-21T02:07:59;18.50;68.70
11214;DHT22;5664;48.606;13.456;2023-03-21T02:10:24;18.50;68.70
11214;DHT22;5664;48.606;13.456;2023-03-21T02:12:51;18.50;68.70
11214;DHT22;5664;48.606;13.456;2023-03-21T02:15:19;18.50;68.70
11214;DHT22;5664;48.606;13.456;2023-03-21T02:22:50;18.50;68.70
11214;DHT22;5664;48.606;13.456;2023-03-21T02:28:01;18.50;68.70
11214;DHT22;5664;48.606;13.456;2023-03-21T02:30:50;18.40;68.60
11214;DHT22;5664;48.606;13.456;2023-03-21T02:33:21;18.40;68.60
11214;DHT22;5664;48.606;13.456;2023-03-21T02:38:37;18.40;68.60
11214;DHT22;5664;48.606;13.456;2023-03-21T02:41:08;18.40;68.50
11214;DHT22;5664;48.606;13.456;2023-03-21T02:46:09;18.40;68.50
11214;DHT22;5664;48.606;13.456;2023-03-21T02:48:42;18.40;68.60
11214;DHT22;5664;48.606;13.456;2023-03-21T02:51:10;18.40;68.60
11214;DHT22;5664;48.606;13.456;2023-03-21T02:53:39;18.40;68.50
11214;DHT22;5664;48.606;13.456;2023-03-21T02:56:05;18.40;68.50
11214;DHT22;5664;48.606;13.456;2023-03-21T02:58:35;18.50;68.50
11214;DHT22;5664;48.606;13.456;2023-03-21T03:01:01;18.40;68.50
11214;DHT22;5664;48.606;13.456;2023-03-21T03:03:27;18.40;68.50
11214;DHT22;5664;48.606;13.456;2023-03-21T03:05:54;18.40;68.50
11214;DHT22;5664;48.606;13.456;2023-03-21T03:08:24;18.40;68.50
11214;DHT22;5664;48.606;13.456;2023-03-21T03:13:26;18.40;68.40
11214;DHT22;5664;48.606;13.456;2023-03-21T03:26:16;18.40;68.30
11214;DHT22;5664;48.606;13.456;2023-03-21T03:28:45;18.40;68.30
11214;DHT22;5664;48.606;13.456;2023-03-21T03:31:13;18.40;68.30
11214;DHT22;5664;48.606;13.456;2023-03-21T03:33:41;18.40;68.30
11214;DHT22;5664;48.606;13.456;2023-03-21T03:36:08;18.40;68.30
11214;DHT22;5664;48.606;13.456;2023-03-21T03:38:35;18.40;68.30
11214;DHT22;5664;48.606;13.456;2023-03-21T03:41:05;18.40;68.40
11214;DHT22;5664;48.606;13.456;2023-03-21T03:43:36;18.40;68.40
11214;DHT22;5664;48.606;13.456;2023-03-21T03:46:26;18.40;68.30
11214;DHT22;5664;48.606;13.456;2023-03-21T03:48:57;18.40;68.30
11214;DHT22;5664;48.606;13.456;2023-03-21T03:51:25;18.40;68.40
11214;DHT22;5664;48.606;13.456;2023-03-21T03:53:54;18.40;68.30
11214;DHT22;5664;48.606;13.456;2023-03-21T03:56:21;18.40;68.30
11214;DHT22;5664;48.606;13.456;2023-03-21T03:58:46;18.40;68.40
11214;DHT22;5664;48.606;13.456;2023-03-21T04:01:12;18.40;68.40
11214;DHT22;5664;48.606;13.456;2023-03-21T04:03:39;18.40;68.40
11214;DHT22;5664;48.606;13.456;2023-03-21T04:06:05;18.40;68.30
11214;DHT22;5664;48.606;13.456;2023-03-21T04:08:31;18.40;68.30
11214;DHT22;5664;48.606;13.456;2023-03-21T04:10:56;18.40;68.40
11214;DHT22;5664;48.606;13.456;2023-03-21T04:13:23;18.40;68.30
11214;DHT22;5664;48.606;13.456;2023-03-21T04:15:48;18.40;68.30
11214;DHT22;5664;48.606;13.456;2023-03-21T04:18:14;18.40;68.30
11214;DHT22;5664;48.606;13.456;2023-03-21T04:20:39;18.40;68.30
11214;DHT22;5664;48.606;13.456;2023-03-21T04:23:05;18.40;68.30
11214;DHT22;5664;48.606;13.456;2023-03-21T04:25:34;18.40;68.30
11214;DHT22;5664;48.606;13.456;2023-03-21T04:27:59;18.40;68.30
11214;DHT22;5664;48.606;13.456;2023-03-21T04:30:25;18.30;68.20
11214;DHT22;5664;48.606;13.456;2023-03-21T04:32:50;18.40;68.30
11214;DHT22;5664;48.606;13.456;2023-03-21T04:35:18;18.40;68.30
11214;DHT22;5664;48.606;13.456;2023-03-21T04:37:44;18.40;68.20
11214;DHT22;5664;48.606;13.456;2023-03-21T04:40:10;18.40;68.30
11214;DHT22;5664;48.606;13.456;2023-03-21T04:42:35;18.40;68.20
11214;DHT22;5664;48.606;13.456;2023-03-21T04:45:01;18.30;68.10
11214;DHT22;5664;48.606;13.456;2023-03-21T04:47:26;18.40;68.20
11214;DHT22;5664;48.606;13.456;2023-03-21T04:49:52;18.30;68.10
11214;DHT22;5664;48.606;13.456;2023-03-21T04:52:18;18.30;68.10
11214;DHT22;5664;48.606;13.456;2023-03-21T04:54:43;18.30;68.10
11214;DHT22;5664;48.606;13.456;2023-03-21T04:57:09;18.30;68.10
11214;DHT22;5664;48.606;13.456;2023-03-21T04:59:34;18.30;68.10
11214;DHT22;5664;48.606;13.456;2023-03-21T05:02:00;18.30;68.00
11214;DHT22;5664;48.606;13.456;2023-03-21T05:04:26;18.30;68.00
11214;DHT22;5664;48.606;13.456;2023-03-21T05:06:51;18.30;68.00
11214;DHT22;5664;48.606;13.456;2023-03-21T05:09:17;18.40;69.00
11214;DHT22;5664;48.606;13.456;2023-03-21T05:11:42;18.30;68.00
11214;DHT22;5664;48.606;13.456;2023-03-21T05:14:09;18.30;68.00
11214;DHT22;5664;48.606;13.456;2023-03-21T05:16:35;18.30;68.00
11214;DHT22;5664;48.606;13.456;2023-03-21T05:19:02;18.30;68.00
11214;DHT22;5664;48.606;13.456;2023-03-21T05:21:28;18.30;67.90
11214;DHT22;5664;48.606;13.456;2023-03-21T05:23:54;18.30;68.00
11214;DHT22;5664;48.606;13.456;2023-03-21T05:26:21;18.30;67.90
11214;DHT22;5664;48.606;13.456;2023-03-21T05:28:47;18.30;67.90
11214;DHT22;5664;48.606;13.456;2023-03-21T05:31:13;18.30;67.90
11214;DHT22;5664;48.606;13.456;2023-03-21T05:33:44;18.30;67.90
11214;DHT22;5664;48.606;13.456;2023-03-21T05:36:09;18.30;67.90
11214;DHT22;5664;48.606;13.456;2023-03-21T05:38:35;18.30;67.90
11214;DHT22;5664;48.606;13.456;2023-03-21T05:41:00;18.30;67.90
11214;DHT22;5664;48.606;13.456;2023-03-21T05:43:26;18.30;67.90
11214;DHT22;5664;48.606;13.456;2023-03-21T05:45:51;18.30;67.90
11214;DHT22;5664;48.606;13.456;2023-03-21T05:48:17;18.30;67.90
11214;DHT22;5664;48.606;13.456;2023-03-21T05:50:43;18.40;68.00
11214;DHT22;5664;48.606;13.456;2023-03-21T05:53:08;18.40;67.90
11214;DHT22;5664;48.606;13.456;2023-03-21T05:55:34;18.30;67.80
11214;DHT22;5664;48.606;13.456;2023-03-21T05:58:00;18.30;67.80
11214;DHT22;5664;48.606;13.456;2023-03-21T06:00:25;18.40;67.90
11214;DHT22;5664;48.606;13.456;2023-03-21T06:02:51;18.40;67.90
11214;DHT22;5664;48.606;13.456;2023-03-21T06:05:16;18.40;67.90
11214;DHT22;5664;48.606;13.456;2023-03-21T06:07:42;18.40;67.90
11214;DHT22;5664;48.606;13.456;2023-03-21T06:10:07;18.40;67.90
11214;DHT22;5664;48.606;13.456;2023-03-21T06:12:33;18.40;67.80
11214;DHT22;5664;48.606;13.456;2023-03-21T06:14:58;18.40;67.80
11214;DHT22;5664;48.606;13.456;2023-03-21T06:17:25;18.40;67.80
11214;DHT22;5664;48.606;13.456;2023-03-21T06:19:50;18.40;67.90
11214;DHT22;5664;48.606;13.456;2023-03-21T06:22:16;18.40;67.80
11214;DHT22;5664;48.606;13.456;2023-03-21T06:24:41;18.40;67.80
11214;DHT22;5664;48.606;13.456;2023-03-21T06:27:07;18.40;67.80
11214;DHT22;5664;48.606;13.456;2023-03-21T06:29:32;18.40;67.80
11214;DHT22;5664;48.606;13.456;2023-03-21T06:31:58;18.40;67.80
11214;DHT22;5664;48.606;13.456;2023-03-21T06:34:23;18.40;67.80
11214;DHT22;5664;48.606;13.456;2023-03-21T06:36:48;18.40;67.80
11214;DHT22;5664;48.606;13.456;2023-03-21T06:39:16;18.40;67.80
11214;DHT22;5664;48.606;13.456;2023-03-21T06:41:42;18.40;67.80
11214;DHT22;5664;48.606;13.456;2023-03-21T06:44:07;18.40;67.80
11214;DHT22;5664;48.606;13.456;2023-03-21T06:46:33;18.40;67.80
11214;DHT22;5664;48.606;13.456;2023-03-21T06:48:58;18.50;67.80
11214;DHT22;5664;48.606;13.456;2023-03-21T06:51:24;18.50;67.80
11214;DHT22;5664;48.606;13.456;2023-03-21T06:53:49;18.50;67.80
11214;DHT22;5664;48.606;13.456;2023-03-21T06:56:15;18.50;67.80
11214;DHT22;5664;48.606;13.456;2023-03-21T06:58:41;18.50;67.80
11214;DHT22;5664;48.606;13.456;2023-03-21T07:01:06;18.50;67.80
11214;DHT22;5664;48.606;13.456;2023-03-21T07:03:32;18.50;67.80
11214;DHT22;5664;48.606;13.456;2023-03-21T07:06:02;18.50;67.80
11214;DHT22;5664;48.606;13.456;2023-03-21T07:08:28;18.50;67.80
11214;DHT22;5664;48.606;13.456;2023-03-21T07:10:54;18.50;67.70
11214;DHT22;5664;48.606;13.456;2023-03-21T07:13:20;18.50;67.70
11214;DHT22;5664;48.606;13.456;2023-03-21T07:15:45;18.50;67.70
11214;DHT22;5664;48.606;13.456;2023-03-21T07:18:11;18.60;67.80
11214;DHT22;5664;48.606;13.456;2023-03-21T07:20:36;18.60;67.70
11214;DHT22;5664;48.606;13.456;2023-03-21T07:23:05;18.60;67.60
11214;DHT22;5664;48.606;13.456;2023-03-21T07:25:31;18.70;67.60
11214;DHT22;5664;48.606;13.456;2023-03-21T07:27:56;18.70;67.50
11214;DHT22;5664;48.606;13.456;2023-03-21T07:30:22;18.70;67.40
11214;DHT22;5664;48.606;13.456;2023-03-21T07:32:48;18.70;67.20
11214;DHT22;5664;48.606;13.456;2023-03-21T07:35:13;18.80;67.20
11214;DHT22;5664;48.606;13.456;2023-03-21T07:37:40;18.80;67.10
11214;DHT22;5664;48.606;13.456;2023-03-21T07:40:06;18.80;67.00
11214;DHT22;5664;48.606;13.456;2023-03-21T07:42:35;18.90;66.90
11214;DHT22;5664;48.606;13.456;2023-03-21T07:45:00;18.90;66.80
11214;DHT22;5664;48.606;13.456;2023-03-21T07:47:27;18.90;66.70
11214;DHT22;5664;48.606;13.456;2023-03-21T07:49:53;18.90;66.70
11214;DHT22;5664;48.606;13.456;2023-03-21T07:52:19;18.90;66.60
11214;DHT22;5664;48.606;13.456;2023-03-21T07:54:45;18.90;66.60
11214;DHT22;5664;48.606;13.456;2023-03-21T07:57:10;19.00;66.70
11214;DHT22;5664;48.606;13.456;2023-03-21T07:59:35;18.30;66.20
11214;DHT22;5664;48.606;13.456;2023-03-21T08:02:01;19.00;66.60
11214;DHT22;5664;48.606;13.456;2023-03-21T08:04:26;19.00;66.70
11214;DHT22;5664;48.606;13.456;2023-03-21T08:06:52;19.00;66.70
11214;DHT22;5664;48.606;13.456;2023-03-21T08:09:17;19.00;66.70
11214;DHT22;5664;48.606;13.456;2023-03-21T08:11:43;18.90;66.70
11214;DHT22;5664;48.606;13.456;2023-03-21T08:14:08;18.90;66.70
11214;DHT22;5664;48.606;13.456;2023-03-21T08:16:34;18.90;66.70
11214;DHT22;5664;48.606;13.456;2023-03-21T08:18:59;18.90;66.70
11214;DHT22;5664;48.606;13.456;2023-03-21T08:21:25;18.90;66.80
11214;DHT22;5664;48.606;13.456;2023-03-21T08:23:51;18.90;66.80
11214;DHT22;5664;48.606;13.456;2023-03-21T08:26:17;18.90;66.80
11214;DHT22;5664;48.606;13.456;2023-03-21T08:28:44;18.90;66.80
11214;DHT22;5664;48.606;13.456;2023-03-21T08:31:10;18.90;66.80
11214;DHT22;5664;48.606;13.456;2023-03-21T08:33:36;18.90;66.90
11214;DHT22;5664;48.606;13.456;2023-03-21T08:36:02;18.90;66.90
11214;DHT22;5664;48.606;13.456;2023-03-21T08:38:27;18.90;66.90
11214;DHT22;5664;48.606;13.456;2023-03-21T08:40:54;18.90;66.90
11214;DHT22;5664;48.606;13.456;2023-03-21T08:43:21;18.90;66.90
11214;DHT22;5664;48.606;13.456;2023-03-21T08:45:46;18.90;66.90
11214;DHT22;5664;48.606;13.456;2023-03-21T08:48:12;18.90;67.00
11214;DHT22;5664;48.606;13.456;2023-03-21T08:50:38;18.90;67.00
11214;DHT22;5664;48.606;13.456;2023-03-21T08:53:03;18.90;66.90
11214;DHT22;5664;48.606;13.456;2023-03-21T08:55:29;18.90;67.00
11214;DHT22;5664;48.606;13.456;2023-03-21T08:57:57;18.90;67.00
11214;DHT22;5664;48.606;13.456;2023-03-21T09:00:23;18.90;67.00
11214;DHT22;5664;48.606;13.456;2023-03-21T09:02:49;18.90;67.00
11214;DHT22;5664;48.606;13.456;2023-03-21T09:05:16;18.90;67.00
11214;DHT22;5664;48.606;13.456;2023-03-21T09:07:42;18.90;67.00
11214;DHT22;5664;48.606;13.456;2023-03-21T09:10:10;18.90;67.00
11214;DHT22;5664;48.606;13.456;2023-03-21T09:12:36;18.90;67.00
11214;DHT22;5664;48.606;13.456;2023-03-21T09:15:02;18.90;67.10
11214;DHT22;5664;48.606;13.456;2023-03-21T09:17:28;18.90;67.00
11214;DHT22;5664;48.606;13.456;2023-03-21T09:19:55;18.90;67.10
11214;DHT22;5664;48.606;13.456;2023-03-21T09:22:26;18.90;67.10
11214;DHT22;5664;48.606;13.456;2023-03-21T09:24:52;18.90;67.10
11214;DHT22;5664;48.606;13.456;2023-03-21T09:27:18;18.90;67.20
11214;DHT22;5664;48.606;13.456;2023-03-21T09:29:47;18.90;67.20
11214;DHT22;5664;48.606;13.456;2023-03-21T09:32:13;18.90;67.20
11214;DHT22;5664;48.606;13.456;2023-03-21T09:34:38;18.90;67.20
11214;DHT22;5664;48.606;13.456;2023-03-21T09:37:06;18.80;67.20
11214;DHT22;5664;48.606;13.456;2023-03-21T09:39:34;18.80;67.30
11214;DHT22;5664;48.606;13.456;2023-03-21T09:44:52;18.80;67.20
11214;DHT22;5664;48.606;13.456;2023-03-21T09:47:21;18.80;67.30
11214;DHT22;5664;48.606;13.456;2023-03-21T09:49:58;18.80;67.30
11214;DHT22;5664;48.606;13.456;2023-03-21T09:52:27;18.80;67.30
11214;DHT22;5664;48.606;13.456;2023-03-21T09:54:54;18.90;67.50
11214;DHT22;5664;48.606;13.456;2023-03-21T09:57:23;18.80;67.40
11214;DHT22;5664;48.606;13.456;2023-03-21T09:59:51;18.80;67.40
11214;DHT22;5664;48.606;13.456;2023-03-21T10:02:20;18.80;67.40
11214;DHT22;5664;48.606;13.456;2023-03-21T10:04:57;18.80;67.50
11214;DHT22;5664;48.606;13.456;2023-03-21T10:07:23;18.80;67.60
11214;DHT22;5664;48.606;13.456;2023-03-21T10:09:49;18.80;67.50
11214;DHT22;5664;48.606;13.456;2023-03-21T10:12:19;18.80;67.50
11214;DHT22;5664;48.606;13.456;2023-03-21T10:14:48;18.80;67.60
11214;DHT22;5664;48.606;13.456;2023-03-21T10:19:40;18.80;67.60
11214;DHT22;5664;48.606;13.456;2023-03-21T10:22:10;18.80;67.60
11214;DHT22;5664;48.606;13.456;2023-03-21T10:24:36;18.80;67.60
11214;DHT22;5664;48.606;13.456;2023-03-21T10:27:01;18.80;67.70
11214;DHT22;5664;48.606;13.456;2023-03-21T10:29:29;18.80;67.70
11214;DHT22;5664;48.606;13.456;2023-03-21T10:31:56;18.80;67.70
11214;DHT22;5664;48.606;13.456;2023-03-21T10:36:47;18.80;67.80
11214;DHT22;5664;48.606;13.456;2023-03-21T10:39:20;18.80;67.70
11214;DHT22;5664;48.606;13.456;2023-03-21T10:41:45;18.80;67.80
11214;DHT22;5664;48.606;13.456;2023-03-21T10:44:12;18.80;67.80
11214;DHT22;5664;48.606;13.456;2023-03-21T10:46:48;18.80;67.80
11214;DHT22;5664;48.606;13.456;2023-03-21T10:49:14;18.70;67.70
11214;DHT22;5664;48.606;13.456;2023-03-21T10:51:40;18.70;67.80
11214;DHT22;5664;48.606;13.456;2023-03-21T10:54:12;18.70;67.80
11214;DHT22;5664;48.606;13.456;2023-03-21T10:56:39;18.70;67.80
11214;DHT22;5664;48.606;13.456;2023-03-21T10:59:07;18.70;67.80
11214;DHT22;5664;48.606;13.456;2023-03-21T11:01:41;18.70;67.80
11214;DHT22;5664;48.606;13.456;2023-03-21T11:04:08;18.70;67.80
11214;DHT22;5664;48.606;13.456;2023-03-21T11:06:37;18.70;67.80
11214;DHT22;5664;48.606;13.456;2023-03-21T11:09:05;18.70;67.80
11214;DHT22;5664;48.606;13.456;2023-03-21T11:11:34;18.70;67.80
11214;DHT22;5664;48.606;13.456;2023-03-21T11:14:01;18.70;67.80
11214;DHT22;5664;48.606;13.456;2023-03-21T11:19:10;18.70;67.80
11214;DHT22;5664;48.606;13.456;2023-03-21T11:21:36;18.70;67.80
11214;DHT22;5664;48.606;13.456;2023-03-21T11:24:02;18.70;67.80
11214;DHT22;5664;48.606;13.456;2023-03-21T11:26:34;18.70;67.80
11214;DHT22;5664;48.606;13.456;2023-03-21T11:31:41;18.70;67.80
11214;DHT22;5664;48.606;13.456;2023-03-21T11:34:07;18.70;67.80
11214;DHT22;5664;48.606;13.456;2023-03-21T11:36:34;18.60;67.70
11214;DHT22;5664;48.606;13.456;2023-03-21T11:41:48;18.60;67.70
11214;DHT22;5664;48.606;13.456;2023-03-21T11:44:26;18.60;67.70
11214;DHT22;5664;48.606;13.456;2023-03-21T11:46:52;18.60;67.70
11214;DHT22;5664;48.606;13.456;2023-03-21T11:49:18;18.60;67.70
11214;DHT22;5664;48.606;13.456;2023-03-21T11:51:46;18.60;67.70
11214;DHT22;5664;48.606;13.456;2023-03-21T11:56:43;18.60;67.70
11214;DHT22;5664;48.606;13.456;2023-03-21T12:06:55;18.60;67.70
11214;DHT22;5664;48.606;13.456;2023-03-21T12:09:27;18.60;67.60
11214;DHT22;5664;48.606;13.456;2023-03-21T12:11:56;18.60;67.70
11214;DHT22;5664;48.606;13.456;2023-03-21T12:17:04;18.60;67.60
11214;DHT22;5664;48.606;13.456;2023-03-21T12:29:54;18.50;67.50
11214;DHT22;5664;48.606;13.456;2023-03-21T12:35:01;18.50;67.50
11214;DHT22;5664;48.606;13.456;2023-03-21T12:37:32;18.50;67.50
11214;DHT22;5664;48.606;13.456;2023-03-21T12:40:09;18.50;67.60
11214;DHT22;5664;48.606;13.456;2023-03-21T12:42:48;18.50;67.60
11214;DHT22;5664;48.606;13.456;2023-03-21T12:45:19;18.50;67.60
11214;DHT22;5664;48.606;13.456;2023-03-21T12:47:47;18.50;67.60
11214;DHT22;5664;48.606;13.456;2023-03-21T12:50:24;18.50;67.60
11214;DHT22;5664;48.606;13.456;2023-03-21T12:52:55;18.50;67.60
11214;DHT22;5664;48.606;13.456;2023-03-21T12:55:22;18.50;67.60
11214;DHT22;5664;48.606;13.456;2023-03-21T12:58:10;18.50;67.50
11214;DHT22;5664;48.606;13.456;2023-03-21T13:03:10;18.50;67.50
11214;DHT22;5664;48.606;13.456;2023-03-21T13:05:41;18.50;67.40
11214;DHT22;5664;48.606;13.456;2023-03-21T13:08:24;18.40;67.30
11214;DHT22;5664;48.606;13.456;2023-03-21T13:10:52;18.50;67.40
11214;DHT22;5664;48.606;13.456;2023-03-21T13:15:56;18.40;67.30
11214;DHT22;5664;48.606;13.456;2023-03-21T13:21:09;18.40;67.30
11214;DHT22;5664;48.606;13.456;2023-03-21T13:23:37;18.40;67.30
11214;DHT22;5664;48.606;13.456;2023-03-21T13:26:03;18.40;67.30
11214;DHT22;5664;48.606;13.456;2023-03-21T13:28:32;18.40;67.30
11214;DHT22;5664;48.606;13.456;2023-03-21T13:34:03;18.40;67.30
11214;DHT22;5664;48.606;13.456;2023-03-21T13:36:29;18.40;67.20
11214;DHT22;5664;48.606;13.456;2023-03-21T13:38:58;18.40;67.30
11214;DHT22;5664;48.606;13.456;2023-03-21T13:41:27;18.30;67.20
11214;DHT22;5664;48.606;13.456;2023-03-21T13:43:55;18.30;68.00
11214;DHT22;5664;48.606;13.456;2023-03-21T13:48:58;18.30;67.20
11214;DHT22;5664;48.606;13.456;2023-03-21T13:53:58;18.30;67.30
11214;DHT22;5664;48.606;13.456;2023-03-21T13:56:24;18.30;67.30
11214;DHT22;5664;48.606;13.456;2023-03-21T13:58:51;18.30;67.30
11214;DHT22;5664;48.606;13.456;2023-03-21T14:09:21;18.30;67.40
11214;DHT22;5664;48.606;13.456;2023-03-21T14:11:49;18.30;67.40
11214;DHT22;5664;48.606;13.456;2023-03-21T14:14:16;18.20;67.40
11214;DHT22;5664;48.606;13.456;2023-03-21T14:16:43;18.30;67.50
11214;DHT22;5664;48.606;13.456;2023-03-21T14:19:09;18.30;67.50
11214;DHT22;5664;48.606;13.456;2023-03-21T14:21:36;18.20;67.50
11214;DHT22;5664;48.606;13.456;2023-03-21T14:26:28;18.20;67.50
11214;DHT22;5664;48.606;13.456;2023-03-21T14:28:54;18.20;67.60
11214;DHT22;5664;48.606;13.456;2023-03-21T14:31:20;18.20;67.60
11214;DHT22;5664;48.606;13.456;2023-03-21T14:33:55;18.20;67.60
11214;DHT22;5664;48.606;13.456;2023-03-21T14:36:25;18.20;67.60
11214;DHT22;5664;48.606;13.456;2023-03-21T14:38:55;18.20;67.70
11214;DHT22;5664;48.606;13.456;2023-03-21T14:41:25;18.20;67.70
11214;DHT22;5664;48.606;13.456;2023-03-21T14:44:51;18.20;67.70
11214;DHT22;5664;48.606;13.456;2023-03-21T14:46:50;18.20;67.70
11214;DHT22;5664;48.606;13.456;2023-03-21T14:49:26;18.20;67.70
11214;DHT22;5664;48.606;13.456;2023-03-21T14:51:52;18.20;67.80
11214;DHT22;5664;48.606;13.456;2023-03-21T14:54:18;18.20;67.70
11214;DHT22;5664;48.606;13.456;2023-03-21T14:56:46;18.10;67.70
11214;DHT22;5664;48.606;13.456;2023-03-21T14:59:16;18.20;67.80
11214;DHT22;5664;48.606;13.456;2023-03-21T15:01:44;18.10;67.70
11214;DHT22;5664;48.606;13.456;2023-03-21T15:04:11;18.10;67.70
11214;DHT22;5664;48.606;13.456;2023-03-21T15:06:48;18.10;67.80
11214;DHT22;5664;48.606;13.456;2023-03-21T15:09:14;18.10;67.80
11214;DHT22;5664;48.606;13.456;2023-03-21T15:11:40;18.10;67.80
11214;DHT22;5664;48.606;13.456;2023-03-21T15:14:06;19.10;68.50
11214;DHT22;5664;48.606;13.456;2023-03-21T15:16:32;18.20;68.00
11214;DHT22;5664;48.606;13.456;2023-03-21T15:18:58;18.10;68.10
11214;DHT22;5664;48.606;13.456;2023-03-21T15:21:27;18.10;68.10
11214;DHT22;5664;48.606;13.456;2023-03-21T15:26:38;18.10;68.10
11214;DHT22;5664;48.606;13.456;2023-03-21T15:29:04;18.10;68.20
11214;DHT22;5664;48.606;13.456;2023-03-21T15:31:33;18.10;68.20
11214;DHT22;5664;48.606;13.456;2023-03-21T15:33:58;18.10;68.30
11214;DHT22;5664;48.606;13.456;2023-03-21T15:36:28;18.10;68.30
11214;DHT22;5664;48.606;13.456;2023-03-21T15:38:56;18.00;68.30
11214;DHT22;5664;48.606;13.456;2023-03-21T15:41:26;18.00;68.30
11214;DHT22;5664;48.606;13.456;2023-03-21T15:46:43;18.00;68.30
11214;DHT22;5664;48.606;13.456;2023-03-21T15:49:10;18.00;68.30
11214;DHT22;5664;48.606;13.456;2023-03-21T15:51:50;18.00;68.40
11214;DHT22;5664;48.606;13.456;2023-03-21T15:54:19;18.00;68.40
11214;DHT22;5664;48.606;13.456;2023-03-21T15:56:46;18.00;68.40
11214;DHT22;5664;48.606;13.456;2023-03-21T15:59:15;18.00;68.40
11214;DHT22;5664;48.606;13.456;2023-03-21T16:01:47;18.00;68.50
11214;DHT22;5664;48.606;13.456;2023-03-21T16:04:13;18.00;68.50
11214;DHT22;5664;48.606;13.456;2023-03-21T16:06:49;17.90;68.40
11214;DHT22;5664;48.606;13.456;2023-03-21T16:09:16;17.90;68.40
11214;DHT22;5664;48.606;13.456;2023-03-21T16:11:55;17.90;68.50
11214;DHT22;5664;48.606;13.456;2023-03-21T16:14:21;17.90;68.50
11214;DHT22;5664;48.606;13.456;2023-03-21T16:16:47;17.90;68.50
11214;DHT22;5664;48.606;13.456;2023-03-21T16:19:13;17.90;68.50
11214;DHT22;5664;48.606;13.456;2023-03-21T16:21:38;17.90;68.60
11214;DHT22;5664;48.606;13.456;2023-03-21T16:24:05;17.90;68.50
11214;DHT22;5664;48.606;13.456;2023-03-21T16:26:32;17.90;68.60
11214;DHT22;5664;48.606;13.456;2023-03-21T16:28:57;17.90;68.60
11214;DHT22;5664;48.606;13.456;2023-03-21T16:31:25;17.90;68.60
11214;DHT22;5664;48.606;13.456;2023-03-21T16:33:50;17.90;68.60
11214;DHT22;5664;48.606;13.456;2023-03-21T16:36:17;17.80;68.40
11214;DHT22;5664;48.606;13.456;2023-03-21T16:38:44;17.90;68.40
11214;DHT22;5664;48.606;13.456;2023-03-21T16:41:10;17.80;68.50
11214;DHT22;5664;48.606;13.456;2023-03-21T16:43:36;17.80;68.50
11214;DHT22;5664;48.606;13.456;2023-03-21T16:48:39;17.80;68.60
11214;DHT22;5664;48.606;13.456;2023-03-21T16:51:04;17.80;68.50
11214;DHT22;5664;48.606;13.456;2023-03-21T16:53:30;17.80;68.50
11214;DHT22;5664;48.606;13.456;2023-03-21T16:55:55;17.80;68.60
11214;DHT22;5664;48.606;13.456;2023-03-21T16:58:27;17.80;68.60
11214;DHT22;5664;48.606;13.456;2023-03-21T17:00:52;17.80;68.60
11214;DHT22;5664;48.606;13.456;2023-03-21T17:03:18;17.70;68.50
11214;DHT22;5664;48.606;13.456;2023-03-21T17:05:43;17.70;68.50
11214;DHT22;5664;48.606;13.456;2023-03-21T17:08:16;17.70;68.50
11214;DHT22;5664;48.606;13.456;2023-03-21T17:10:43;17.70;68.60
11214;DHT22;5664;48.606;13.456;2023-03-21T17:13:08;17.70;68.50
11214;DHT22;5664;48.606;13.456;2023-03-21T17:15:34;17.70;68.50